createdAt,value
2023-04-08T00:01:20.315Z,98663.66
2023-04-08T00:03:48.893Z,98659.70
2023-04-08T00:06:16.556Z,98656.02
2023-04-08T00:08:44.933Z,98654.46
2023-04-08T00:11:12.188Z,98650.16
2023-04-08T00:13:39.536Z,98651.10
2023-04-08T00:16:07.818Z,98650.38
2023-04-08T00:18:37.608Z,98647.77
2023-04-08T00:21:13.285Z,98649.41
2023-04-08T00:23:40.558Z,98650.43
2023-04-08T00:26:07.985Z,98647.31
2023-04-08T00:28:36.051Z,98647.30
2023-04-08T00:31:03.644Z,98646.34
2023-04-08T00:33:36.395Z,98649.11
2023-04-08T00:36:04.222Z,98647.58
2023-04-08T00:38:31.716Z,98646.14
2023-04-08T00:40:58.875Z,98645.39
2023-04-08T00:43:26.609Z,98645.50
2023-04-08T00:45:54.300Z,98643.70
2023-04-08T00:48:23.694Z,98645.54
2023-04-08T00:50:56.064Z,98647.10
2023-04-08T00:53:43.081Z,98644.95
2023-04-08T00:56:10.535Z,98644.00
2023-04-08T00:58:38.203Z,98647.05
2023-04-08T01:01:07.747Z,98648.66
2023-04-08T01:03:50.273Z,98653.23
2023-04-08T01:06:27.089Z,98650.27
2023-04-08T01:08:54.891Z,98651.95
2023-04-08T01:11:22.308Z,98653.23
2023-04-08T01:13:49.676Z,98653.90
2023-04-08T01:16:19.514Z,98652.45
2023-04-08T01:18:46.802Z,98655.17
2023-04-08T01:21:15.513Z,98656.09
2023-04-08T01:23:43.282Z,98655.82
2023-04-08T01:26:13.331Z,98653.44
2023-04-08T01:28:40.543Z,98651.97
2023-04-08T01:31:08.201Z,98652.61
2023-04-08T01:33:35.973Z,98651.77
2023-04-08T01:36:03.572Z,98655.05
2023-04-08T01:38:31.712Z,98651.36
2023-04-08T01:40:59.608Z,98648.36
2023-04-08T01:43:27.142Z,98645.79
2023-04-08T01:45:57.780Z,98644.91
2023-04-08T01:48:25.324Z,98644.93
2023-04-08T01:50:53.103Z,98649.41
2023-04-08T01:53:20.546Z,98648.77
2023-04-08T01:55:50.026Z,98654.02
2023-04-08T01:58:21.097Z,98659.45
2023-04-08T02:00:48.455Z,98663.86
2023-04-08T02:03:17.561Z,98666.52
2023-04-08T02:05:47.247Z,98669.23
2023-04-08T02:08:14.911Z,98672.31
2023-04-08T02:10:42.275Z,98671.20
2023-04-08T02:13:09.823Z,98668.73
2023-04-08T02:15:38.032Z,98664.42
2023-04-08T02:18:09.074Z,98664.55
2023-04-08T02:20:57.278Z,98662.19
2023-04-08T02:23:32.760Z,98660.08
2023-04-08T02:26:00.286Z,98661.93
2023-04-08T02:28:27.742Z,98659.11
2023-04-08T02:30:55.300Z,98659.84
2023-04-08T02:33:24.702Z,98664.31
2023-04-08T02:35:54.214Z,98665.96
2023-04-08T02:38:29.689Z,98666.97
2023-04-08T02:40:58.163Z,98667.34
2023-04-08T02:43:32.140Z,98670.79
2023-04-08T02:46:06.908Z,98671.44
2023-04-08T02:48:37.216Z,98669.48
2023-04-08T02:51:04.860Z,98670.20
2023-04-08T02:53:33.849Z,98672.27
2023-04-08T02:56:01.429Z,98669.73
2023-04-08T02:58:29.378Z,98669.85
2023-04-08T03:00:57.518Z,98666.50
2023-04-08T03:03:30.032Z,98668.38
2023-04-08T03:05:58.403Z,98667.43
2023-04-08T03:08:26.056Z,98665.80
2023-04-08T03:10:53.252Z,98668.70
2023-04-08T03:13:20.768Z,98667.98
2023-04-08T03:15:48.333Z,98667.83
2023-04-08T03:18:17.520Z,98666.23
2023-04-08T03:20:44.730Z,98671.14
2023-04-08T03:23:13.456Z,98670.81
2023-04-08T03:25:41.155Z,98672.94
2023-04-08T03:28:08.579Z,98673.79
2023-04-08T03:30:36.242Z,98671.30
2023-04-08T03:33:09.305Z,98673.15
2023-04-08T03:35:38.456Z,98673.14
2023-04-08T03:38:05.908Z,98680.11
2023-04-08T03:40:33.331Z,98681.05
2023-04-08T03:43:01.255Z,98684.34
2023-04-08T03:45:29.170Z,98681.67
2023-04-08T03:47:57.470Z,98680.10
2023-04-08T03:50:24.789Z,98684.27
2023-04-08T03:52:53.102Z,98686.54
2023-04-08T03:55:20.528Z,98687.70
2023-04-08T03:57:47.678Z,98685.11
2023-04-08T04:00:15.106Z,98685.86
2023-04-08T04:03:06.161Z,98685.42
2023-04-08T04:05:34.839Z,98685.42
2023-04-08T04:08:02.689Z,98691.48
2023-04-08T04:10:30.963Z,98698.70
2023-04-08T04:12:58.326Z,98701.09
2023-04-08T04:15:27.784Z,98702.89
2023-04-08T04:17:55.978Z,98698.98
2023-04-08T04:20:25.512Z,98706.54
2023-04-08T04:22:53.061Z,98715.77
2023-04-08T04:25:20.548Z,98716.26
2023-04-08T04:27:51.356Z,98717.21
2023-04-08T04:30:19.324Z,98722.56
2023-04-08T04:32:48.656Z,98722.70
2023-04-08T04:35:15.979Z,98721.10
2023-04-08T04:37:43.329Z,98718.52
2023-04-08T04:40:11.002Z,98721.68
2023-04-08T04:42:38.856Z,98719.05
2023-04-08T04:45:06.617Z,98715.10
2023-04-08T04:47:33.884Z,98709.41
2023-04-08T04:50:01.438Z,98713.88
2023-04-08T04:52:35.647Z,98715.84
2023-04-08T04:55:03.821Z,98716.99
2023-04-08T04:57:31.227Z,98712.44
2023-04-08T05:00:02.210Z,98711.48
2023-04-08T05:02:31.093Z,98707.30
2023-04-08T05:04:58.510Z,98704.48
2023-04-08T05:07:27.455Z,98701.11
2023-04-08T05:09:54.954Z,98706.80
2023-04-08T05:12:22.274Z,98708.63
2023-04-08T05:14:53.005Z,98710.02
2023-04-08T05:17:21.178Z,98711.41
2023-04-08T05:19:49.470Z,98711.26
2023-04-08T05:22:17.396Z,98711.56
2023-04-08T05:24:45.029Z,98712.95
2023-04-08T05:27:12.343Z,98707.82
2023-04-08T05:29:41.490Z,98710.59
2023-04-08T05:32:09.200Z,98715.48
2023-04-08T05:34:36.755Z,98720.19
2023-04-08T05:37:04.243Z,98723.92
2023-04-08T05:39:33.407Z,98724.95
2023-04-08T05:42:01.693Z,98733.65
2023-04-08T05:44:29.450Z,98745.88
2023-04-08T05:46:57.466Z,98748.00
2023-04-08T05:49:24.800Z,98758.08
2023-04-08T05:51:52.845Z,98757.53
2023-04-08T05:54:20.606Z,98761.81
2023-04-08T05:56:52.260Z,98769.45
2023-04-08T05:59:19.920Z,98768.13
2023-04-08T06:01:47.305Z,98781.29
2023-04-08T06:04:17.175Z,98780.16
2023-04-08T06:06:44.637Z,98782.59
2023-04-08T06:09:12.135Z,98785.07
2023-04-08T06:11:59.928Z,98782.67
2023-04-08T06:14:27.488Z,98782.90
2023-04-08T06:16:56.719Z,98783.91
2023-04-08T06:19:24.972Z,98792.46
2023-04-08T06:21:52.328Z,98797.45
2023-04-08T06:24:19.675Z,98809.91
2023-04-08T06:26:47.545Z,98816.77
2023-04-08T06:29:15.103Z,98818.09
2023-04-08T06:31:45.373Z,98832.44
2023-04-08T06:34:12.770Z,98836.84
2023-04-08T06:36:40.333Z,98845.15
2023-04-08T06:39:08.103Z,98858.52
2023-04-08T06:41:35.352Z,98872.81
2023-04-08T06:44:04.246Z,98882.08
2023-04-08T06:46:31.387Z,98891.15
2023-04-08T06:48:58.956Z,98903.22
2023-04-08T06:51:27.430Z,98918.20
2023-04-08T06:53:54.673Z,98925.26
2023-04-08T06:56:22.655Z,98933.77
2023-04-08T06:58:51.794Z,98950.70
2023-04-08T07:01:19.279Z,98966.72
2023-04-08T07:03:47.152Z,98981.89
2023-04-08T07:06:15.042Z,98989.70
2023-04-08T07:08:42.284Z,99002.96
2023-04-08T07:11:11.971Z,99012.79
2023-04-08T07:13:39.670Z,99020.80
2023-04-08T07:16:08.040Z,99034.44
2023-04-08T07:18:36.241Z,99045.95
2023-04-08T07:21:05.270Z,99060.30
2023-04-08T07:23:33.893Z,99076.74
2023-04-08T07:26:03.467Z,99090.64
2023-04-08T07:28:32.117Z,99098.90
2023-04-08T07:31:17.015Z,99107.80
2023-04-08T07:33:44.809Z,99119.83
2023-04-08T07:36:18.113Z,99131.88
2023-04-08T07:38:46.792Z,99139.51
2023-04-08T07:41:18.953Z,99144.30
2023-04-08T07:43:46.126Z,99149.02
2023-04-08T07:46:13.540Z,99150.95
2023-04-08T07:48:41.115Z,99162.59
2023-04-08T07:51:11.087Z,99173.30
2023-04-08T07:53:39.841Z,99194.67
2023-04-08T07:56:11.017Z,99205.23
2023-04-08T07:58:40.006Z,99210.55
2023-04-08T08:01:14.862Z,99225.95
2023-04-08T08:03:43.067Z,99239.75
2023-04-08T08:06:13.382Z,99258.30
2023-04-08T08:08:41.867Z,99273.81
2023-04-08T08:11:09.157Z,99286.43
2023-04-08T08:13:43.176Z,99303.73
2023-04-08T08:16:11.660Z,99323.66
2023-04-08T08:18:44.217Z,99338.19
2023-04-08T08:21:15.637Z,99341.59
2023-04-08T08:23:42.896Z,99349.45
2023-04-08T08:26:10.725Z,99354.42
2023-04-08T08:28:39.557Z,99364.01
2023-04-08T08:31:07.178Z,99375.45
2023-04-08T08:33:35.170Z,99379.63
2023-04-08T08:36:05.091Z,99385.39
2023-04-08T08:38:33.176Z,99390.73
2023-04-08T08:41:00.321Z,99392.36
2023-04-08T08:43:28.566Z,99398.67
2023-04-08T08:45:56.053Z,99403.39
2023-04-08T08:48:23.315Z,99404.52
2023-04-08T08:50:51.118Z,99406.14
2023-04-08T08:53:20.263Z,99410.77
2023-04-08T08:58:20.186Z,99416.88
2023-04-08T09:00:47.882Z,99419.70
2023-04-08T09:03:19.808Z,99432.75
2023-04-08T09:05:55.249Z,99432.35
2023-04-08T09:08:33.489Z,99433.77
2023-04-08T09:11:21.261Z,99444.03
2023-04-08T09:13:49.583Z,99476.81
2023-04-08T09:16:18.478Z,99498.27
2023-04-08T09:18:46.834Z,99514.84
2023-04-08T09:21:14.189Z,99534.16
2023-04-08T09:23:42.543Z,99535.69
2023-04-08T09:26:12.740Z,99538.80
2023-04-08T09:28:41.807Z,99537.30
2023-04-08T09:31:26.039Z,99540.32
2023-04-08T09:33:59.708Z,99545.24
2023-04-08T09:36:27.738Z,99552.54
2023-04-08T09:38:55.190Z,99558.31
2023-04-08T09:41:23.412Z,99555.83
2023-04-08T09:43:52.718Z,99563.66
2023-04-08T09:46:41.287Z,99577.02
2023-04-08T09:49:12.297Z,99622.67
2023-04-08T09:51:45.162Z,99633.17
2023-04-08T09:54:13.591Z,99642.73
2023-04-08T09:56:41.665Z,99647.52
2023-04-08T09:59:14.356Z,99645.91
2023-04-08T10:01:43.524Z,99650.98
2023-04-08T10:04:12.495Z,99651.25
2023-04-08T10:06:41.858Z,99658.32
2023-04-08T10:09:09.790Z,99673.06
2023-04-08T10:11:37.159Z,99676.22
2023-04-08T10:14:05.156Z,99674.86
2023-04-08T10:16:33.256Z,99675.91
2023-04-08T10:19:01.385Z,99680.36
2023-04-08T10:21:36.652Z,99675.42
2023-04-08T10:24:07.628Z,99669.40
2023-04-08T10:26:35.696Z,99674.05
2023-04-08T10:29:24.063Z,99672.92
2023-04-08T10:31:51.411Z,99675.08
2023-04-08T10:34:20.919Z,99676.94
2023-04-08T10:36:48.782Z,99679.30
2023-04-08T10:39:18.596Z,99683.51
2023-04-08T10:41:46.466Z,99688.39
2023-04-08T10:44:17.501Z,99692.20
2023-04-08T10:46:46.391Z,99692.73
2023-04-08T10:49:14.130Z,99689.33
2023-04-08T10:51:48.307Z,99687.20
2023-04-08T10:54:17.357Z,99688.68
2023-04-08T10:56:49.120Z,99685.75
2023-04-08T10:59:31.512Z,99688.79
2023-04-08T11:02:00.804Z,99688.60
2023-04-08T11:04:28.243Z,99683.20
2023-04-08T11:06:57.909Z,99685.39
2023-04-08T11:09:25.655Z,99684.09
2023-04-08T11:11:53.235Z,99683.79
2023-04-08T11:14:22.108Z,99678.74
2023-04-08T11:16:49.569Z,99681.38
2023-04-08T11:19:17.545Z,99675.23
2023-04-08T11:21:46.151Z,99673.66
2023-04-08T11:24:13.921Z,99671.07
2023-04-08T11:26:41.742Z,99669.77
2023-04-08T11:29:14.888Z,99667.34
2023-04-08T11:31:42.662Z,99667.25
2023-04-08T11:34:12.593Z,99665.61
2023-04-08T11:36:40.205Z,99653.26
2023-04-08T11:39:08.590Z,99645.96
2023-04-08T11:41:37.580Z,99642.52
2023-04-08T11:44:06.536Z,99635.14
2023-04-08T11:46:35.164Z,99629.99
2023-04-08T11:49:03.529Z,99623.09
2023-04-08T11:51:54.509Z,99620.70
2023-04-08T11:54:28.003Z,99612.70
2023-04-08T11:56:57.816Z,99611.84
2023-04-08T11:59:27.302Z,99609.55
2023-04-08T12:01:57.075Z,99604.81
2023-04-08T12:04:24.424Z,99603.54
2023-04-08T12:06:53.275Z,99606.81
2023-04-08T12:09:20.848Z,99595.77
2023-04-08T12:11:49.009Z,99593.67
2023-04-08T12:14:17.691Z,99596.52
2023-04-08T12:16:44.890Z,99594.27
2023-04-08T12:19:12.298Z,99593.22
2023-04-08T12:21:39.959Z,99599.31
2023-04-08T12:24:07.465Z,99600.05
2023-04-08T12:26:39.274Z,99598.54
2023-04-08T12:29:09.087Z,99605.26
2023-04-08T12:31:36.360Z,99617.63
2023-04-08T12:34:06.766Z,99633.83
2023-04-08T12:36:34.537Z,99647.52
2023-04-08T12:39:05.164Z,99655.60
2023-04-08T12:41:33.335Z,99672.71
2023-04-08T12:44:00.699Z,99684.91
2023-04-08T12:46:31.291Z,99688.89
2023-04-08T12:49:04.302Z,99689.80
2023-04-08T12:51:39.244Z,99689.79
2023-04-08T12:54:06.706Z,99694.27
2023-04-08T12:56:34.256Z,99696.65
2023-04-08T12:59:02.031Z,99691.63
2023-04-08T13:01:30.264Z,99693.15
2023-04-08T13:03:57.791Z,99695.23
2023-04-08T13:06:27.260Z,99692.88
2023-04-08T13:08:55.065Z,99685.23
2023-04-08T13:11:22.904Z,99683.77
2023-04-08T13:13:50.434Z,99674.16
2023-04-08T13:16:18.208Z,99664.98
2023-04-08T13:18:48.772Z,99653.11
2023-04-08T13:21:16.529Z,99639.33
2023-04-08T13:23:43.860Z,99618.33
2023-04-08T13:26:11.112Z,99589.27
2023-04-08T13:28:55.881Z,99547.86
2023-04-08T13:31:26.195Z,99509.75
2023-04-08T13:33:56.884Z,99483.80
2023-04-08T13:36:28.175Z,99445.08
2023-04-08T13:38:56.074Z,99432.33
2023-04-08T13:41:24.868Z,99397.17
2023-04-08T13:43:53.201Z,99390.11
2023-04-08T13:46:20.996Z,99373.08
2023-04-08T13:48:48.790Z,99356.16
2023-04-08T13:51:16.630Z,99346.98
2023-04-08T13:53:44.357Z,99340.02
2023-04-08T13:56:13.247Z,99319.16
2023-04-08T13:58:41.319Z,99303.63
2023-04-08T14:01:08.899Z,99291.67
2023-04-08T14:03:36.877Z,99280.55
2023-04-08T14:06:04.610Z,99261.98
2023-04-08T14:08:33.911Z,99249.95
2023-04-08T14:11:04.743Z,99228.22
2023-04-08T14:13:32.029Z,99201.33
2023-04-08T14:16:01.982Z,99192.80
2023-04-08T14:18:30.875Z,99202.36
2023-04-08T14:20:58.607Z,99198.84
2023-04-08T14:23:26.192Z,99185.53
2023-04-08T14:25:53.568Z,99172.73
2023-04-08T14:28:21.141Z,99160.42
2023-04-08T14:30:49.059Z,99150.21
2023-04-08T14:33:17.383Z,99138.08
2023-04-08T14:35:45.574Z,99130.15
2023-04-08T14:38:13.330Z,99112.16
2023-04-08T14:40:40.879Z,99102.09
2023-04-08T14:43:09.053Z,99091.33
2023-04-08T14:45:36.409Z,99083.79
2023-04-08T14:48:03.870Z,99086.15
2023-04-08T14:50:31.949Z,99082.36
2023-04-08T14:52:59.194Z,99081.85
2023-04-08T14:55:28.143Z,99084.89
2023-04-08T14:57:56.866Z,99081.98
2023-04-08T15:00:24.222Z,99079.30
2023-04-08T15:03:10.705Z,99080.04
2023-04-08T15:05:42.416Z,99088.04
2023-04-08T15:08:09.875Z,99095.09
2023-04-08T15:10:38.054Z,99092.92
2023-04-08T15:13:05.320Z,99086.04
2023-04-08T15:15:32.682Z,99085.95
2023-04-08T15:18:00.289Z,99085.35
2023-04-08T15:20:27.729Z,99082.17
2023-04-08T15:22:55.493Z,99086.36
2023-04-08T15:25:22.558Z,99089.95
2023-04-08T15:27:49.736Z,99095.10
2023-04-08T15:30:23.799Z,99096.16
2023-04-08T15:32:52.205Z,99099.96
2023-04-08T15:35:19.673Z,99102.36
2023-04-08T15:37:47.960Z,99108.75
2023-04-08T15:40:15.782Z,99113.41
2023-04-08T15:42:44.361Z,99118.02
2023-04-08T15:45:11.769Z,99124.67
2023-04-08T15:47:39.619Z,99135.40
2023-04-08T15:50:07.445Z,99143.60
2023-04-08T15:52:36.336Z,99148.56
2023-04-08T15:55:04.204Z,99153.81
2023-04-08T15:57:32.178Z,99152.85
2023-04-08T15:59:59.976Z,99151.55
2023-04-08T16:02:39.396Z,99144.58
2023-04-08T16:05:07.340Z,99143.07
2023-04-08T16:07:34.908Z,99142.95
2023-04-08T16:10:02.266Z,99142.79
2023-04-08T16:12:29.961Z,99140.15
2023-04-08T16:14:57.409Z,99139.89
2023-04-08T16:17:25.269Z,99134.32
2023-04-08T16:19:59.379Z,99132.38
2023-04-08T16:22:27.218Z,99127.98
2023-04-08T16:24:54.878Z,99127.84
2023-04-08T16:27:22.337Z,99121.31
2023-04-08T16:29:49.497Z,99116.21
2023-04-08T16:32:17.248Z,99118.04
2023-04-08T16:34:44.838Z,99122.17
2023-04-08T16:37:14.387Z,99120.55
2023-04-08T16:39:42.178Z,99122.23
2023-04-08T16:42:09.839Z,99123.33
2023-04-08T16:44:38.485Z,99124.23
2023-04-08T16:47:06.288Z,99122.79
2023-04-08T16:49:33.545Z,99121.02
2023-04-08T16:52:01.105Z,99126.59
2023-04-08T16:54:28.764Z,99133.78
2023-04-08T16:56:56.630Z,99137.73
2023-04-08T16:59:24.606Z,99143.95
2023-04-08T17:01:54.461Z,99142.41
2023-04-08T17:04:22.995Z,99142.41
2023-04-08T17:06:51.781Z,99142.24
2023-04-08T17:09:21.815Z,99143.41
2023-04-08T17:11:49.253Z,99150.84
2023-04-08T17:14:16.834Z,99151.44
2023-04-08T17:16:46.344Z,99154.04
2023-04-08T17:19:15.011Z,99160.36
2023-04-08T17:21:42.568Z,99169.39
2023-04-08T17:24:11.453Z,99177.21
2023-04-08T17:26:40.399Z,99186.98
2023-04-08T17:29:08.229Z,99191.89
2023-04-08T17:31:36.337Z,99204.84
2023-04-08T17:34:03.524Z,99211.65
2023-04-08T17:36:31.508Z,99215.23
2023-04-08T17:38:59.480Z,99214.66
2023-04-08T17:41:39.004Z,99205.63
2023-04-08T17:44:07.493Z,99196.73
2023-04-08T17:46:35.256Z,99179.84
2023-04-08T17:49:07.192Z,99161.10
2023-04-08T17:51:34.987Z,99149.39
2023-04-08T17:54:02.689Z,99150.37
2023-04-08T17:56:30.710Z,99145.38
2023-04-08T17:58:58.602Z,99143.61
2023-04-08T18:01:27.697Z,99140.21
2023-04-08T18:03:56.069Z,99135.41
2023-04-08T18:06:23.710Z,99134.64
2023-04-08T18:08:51.190Z,99145.25
2023-04-08T18:11:20.581Z,99148.71
2023-04-08T18:13:48.299Z,99148.53
2023-04-08T18:16:22.881Z,99151.13
2023-04-08T18:18:52.360Z,99152.69
2023-04-08T18:21:21.692Z,99155.59
2023-04-08T18:23:51.003Z,99149.73
2023-04-08T18:26:18.849Z,99151.57
2023-04-08T18:28:46.897Z,99149.52
2023-04-08T18:31:14.288Z,99140.08
2023-04-08T18:33:41.941Z,99142.83
2023-04-08T18:36:10.082Z,99138.54
2023-04-08T18:38:39.696Z,99138.05
2023-04-08T18:41:08.584Z,99129.80
2023-04-08T18:43:36.268Z,99133.70
2023-04-08T18:46:04.599Z,99129.00
2023-04-08T18:48:33.319Z,99125.96
2023-04-08T18:51:01.649Z,99116.79
2023-04-08T18:53:30.728Z,99109.19
2023-04-08T18:55:59.468Z,99109.58
2023-04-08T18:58:27.221Z,99120.30
2023-04-08T19:00:54.484Z,99130.48
2023-04-08T19:03:23.469Z,99127.57
2023-04-08T19:05:51.340Z,99122.88
2023-04-08T19:08:19.207Z,99114.96
2023-04-08T19:10:46.704Z,99101.59
2023-04-08T19:13:14.531Z,99102.17
2023-04-08T19:15:42.803Z,99100.86
2023-04-08T19:18:10.365Z,99087.73
2023-04-08T19:20:39.352Z,99070.80
2023-04-08T19:23:06.749Z,99056.05
2023-04-08T19:25:35.393Z,99050.98
2023-04-08T19:28:05.114Z,99045.57
2023-04-08T19:30:37.996Z,99038.14
2023-04-08T19:33:10.357Z,99039.21
2023-04-08T19:35:37.913Z,99046.70
2023-04-08T19:38:05.308Z,99052.84
2023-04-08T19:40:33.144Z,99063.15
2023-04-08T19:43:00.745Z,99065.40
2023-04-08T19:45:29.283Z,99068.80
2023-04-08T19:47:56.702Z,99063.51
2023-04-08T19:50:25.117Z,99061.13
2023-04-08T19:52:52.817Z,99060.48
2023-04-08T19:55:21.936Z,99057.52
2023-04-08T19:57:51.372Z,99052.08
2023-04-08T20:00:20.883Z,99055.05
2023-04-08T20:02:49.451Z,99052.52
2023-04-08T20:05:17.329Z,99055.25
2023-04-08T20:07:44.685Z,99054.27
2023-04-08T20:10:12.040Z,99052.30
2023-04-08T20:12:41.033Z,99055.16
2023-04-08T20:15:22.765Z,99051.70
2023-04-08T20:17:52.239Z,99050.08
2023-04-08T20:20:20.404Z,99049.75
2023-04-08T20:22:47.966Z,99045.94
2023-04-08T20:25:15.830Z,99048.16
2023-04-08T20:27:45.784Z,99041.57
2023-04-08T20:30:13.719Z,99036.66
2023-04-08T20:32:41.124Z,99027.17
2023-04-08T20:35:09.342Z,99026.15
2023-04-08T20:37:37.624Z,99020.29
2023-04-08T20:40:07.020Z,99020.27
2023-04-08T20:42:36.122Z,99024.63
2023-04-08T20:45:03.559Z,99028.63
2023-04-08T20:47:32.985Z,99027.06
2023-04-08T20:50:00.223Z,99026.45
2023-04-08T20:52:27.573Z,99024.17
2023-04-08T20:54:55.462Z,99016.73
2023-04-08T20:57:23.410Z,99010.67
2023-04-08T20:59:53.676Z,99002.71
2023-04-08T21:02:21.226Z,98996.98
2023-04-08T21:04:49.063Z,98991.06
2023-04-08T21:07:17.130Z,98989.62
2023-04-08T21:09:46.701Z,98987.31
2023-04-08T21:12:14.295Z,98983.46
2023-04-08T21:14:41.752Z,98977.02
2023-04-08T21:17:09.210Z,98968.73
2023-04-08T21:19:36.663Z,98969.75
2023-04-08T21:22:04.431Z,98967.41
2023-04-08T21:24:32.602Z,98965.14
2023-04-08T21:27:01.182Z,98956.69
2023-04-08T21:29:28.647Z,98951.27
2023-04-08T21:31:56.595Z,98942.64
2023-04-08T21:34:23.962Z,98939.50
2023-04-08T21:36:51.662Z,98935.58
2023-04-08T21:39:18.777Z,98932.85
2023-04-08T21:41:46.123Z,98930.98
2023-04-08T21:44:14.932Z,98929.77
2023-04-08T21:46:43.086Z,98927.40
2023-04-08T21:49:11.184Z,98927.38
2023-04-08T21:51:40.458Z,98924.74
2023-04-08T21:54:08.016Z,98920.61
2023-04-08T21:56:35.490Z,98914.61
2023-04-08T21:59:03.583Z,98909.41
2023-04-08T22:01:32.398Z,98909.08
2023-04-08T22:04:01.159Z,98908.73
2023-04-08T22:06:32.672Z,98905.36
2023-04-08T22:09:00.640Z,98904.01
2023-04-08T22:11:27.890Z,98904.58
2023-04-08T22:13:55.456Z,98905.30
2023-04-08T22:16:26.018Z,98904.74
2023-04-08T22:18:53.666Z,98910.06
2023-04-08T22:21:21.405Z,98906.84
2023-04-08T22:23:50.605Z,98905.80
2023-04-08T22:26:18.107Z,98901.73
2023-04-08T22:28:50.458Z,98901.95
2023-04-08T22:31:18.996Z,98902.28
2023-04-08T22:33:47.294Z,98902.55
2023-04-08T22:36:14.657Z,98907.30
2023-04-08T22:38:42.209Z,98905.52
2023-04-08T22:41:19.109Z,98902.27
2023-04-08T22:43:46.855Z,98905.63
2023-04-08T22:46:14.695Z,98906.85
2023-04-08T22:48:42.073Z,98906.29
2023-04-08T22:51:12.241Z,98904.55
2023-04-08T22:53:39.713Z,98908.32
2023-04-08T22:56:07.208Z,98907.55
2023-04-08T22:58:38.272Z,98906.95
2023-04-08T23:01:13.202Z,98903.07
2023-04-08T23:03:41.465Z,98906.09
2023-04-08T23:06:10.070Z,98909.64
2023-04-08T23:08:39.022Z,98911.77
2023-04-08T23:11:06.616Z,98911.30
2023-04-08T23:13:35.690Z,98914.95
2023-04-08T23:16:06.405Z,98916.08
2023-04-08T23:18:33.768Z,98920.33
2023-04-08T23:21:01.125Z,98921.69
2023-04-08T23:23:29.910Z,98927.40
2023-04-08T23:25:57.322Z,98923.97
2023-04-08T23:28:26.601Z,98927.40
2023-04-08T23:30:54.160Z,98930.44
2023-04-08T23:33:22.296Z,98931.45
2023-04-08T23:35:50.176Z,98938.15
2023-04-08T23:38:17.616Z,98936.44
2023-04-08T23:40:45.387Z,98939.59
2023-04-08T23:43:13.145Z,98936.98
2023-04-08T23:45:40.709Z,98939.23
2023-04-08T23:48:10.027Z,98941.15
2023-04-08T23:50:37.779Z,98942.60
2023-04-08T23:53:05.351Z,98943.30
2023-04-08T23:55:35.957Z,98946.17
2023-04-08T23:58:03.431Z,98944.96
